sensor_id;sensor_type;location;lat;lon;timestamp;P1;durP1;ratioP1;P2;durP2;ratioP2
36715;SDS011;22699;51.034;3.730;2024-03-23T00:53:23;27.17;;;9.50;;
36715;SDS011;22699;51.034;3.730;2024-03-23T00:55:49;30.88;;;10.38;;
36715;SDS011;22699;51.034;3.730;2024-03-23T00:58:14;23.20;;;10.30;;
36715;SDS011;22699;51.034;3.730;2024-03-23T01:00:40;24.92;;;9.45;;
36715;SDS011;22699;51.034;3.730;2024-03-23T01:03:06;25.00;;;10.55;;
36715;SDS011;22699;51.034;3.730;2024-03-23T01:05:32;23.63;;;9.75;;
36715;SDS011;22699;51.034;3.730;2024-03-23T01:07:58;26.40;;;10.10;;
36715;SDS011;22699;51.034;3.730;2024-03-23T01:10:29;34.40;;;10.90;;
36715;SDS011;22699;51.034;3.730;2024-03-23T01:12:59;23.48;;;9.95;;
36715;SDS011;22699;51.034;3.730;2024-03-23T01:15:24;24.38;;;10.38;;
36715;SDS011;22699;51.034;3.730;2024-03-23T01:17:50;21.80;;;9.23;;
36715;SDS011;22699;51.034;3.730;2024-03-23T01:20:17;23.67;;;9.70;;
36715;SDS011;22699;51.034;3.730;2024-03-23T01:22:44;25.05;;;9.80;;
36715;SDS011;22699;51.034;3.730;2024-03-23T01:25:10;26.25;;;11.40;;
36715;SDS011;22699;51.034;3.730;2024-03-23T01:27:41;23.63;;;9.98;;
36715;SDS011;22699;51.034;3.730;2024-03-23T01:30:07;20.33;;;9.50;;
36715;SDS011;22699;51.034;3.730;2024-03-23T01:38:31;18.77;;;8.93;;
36715;SDS011;22699;51.034;3.730;2024-03-23T01:40:58;23.00;;;8.63;;
36715;SDS011;22699;51.034;3.730;2024-03-23T01:46:59;20.23;;;8.80;;
36715;SDS011;22699;51.034;3.730;2024-03-23T01:52:32;19.52;;;9.35;;
36715;SDS011;22699;51.034;3.730;2024-03-23T01:54:58;22.77;;;9.23;;
36715;SDS011;22699;51.034;3.730;2024-03-23T01:57:26;21.30;;;8.35;;
36715;SDS011;22699;51.034;3.730;2024-03-23T01:59:52;22.20;;;8.77;;
36715;SDS011;22699;51.034;3.730;2024-03-23T02:02:18;22.13;;;9.32;;
36715;SDS011;22699;51.034;3.730;2024-03-23T02:04:45;26.30;;;9.65;;
36715;SDS011;22699;51.034;3.730;2024-03-23T02:07:11;23.98;;;8.50;;
36715;SDS011;22699;51.034;3.730;2024-03-23T02:09:37;14.10;;;7.80;;
36715;SDS011;22699;51.034;3.730;2024-03-23T02:18:09;19.58;;;7.93;;
36715;SDS011;22699;51.034;3.730;2024-03-23T02:23:50;16.73;;;6.93;;
36715;SDS011;22699;51.034;3.730;2024-03-23T02:26:16;17.25;;;6.72;;
36715;SDS011;22699;51.034;3.730;2024-03-23T02:28:45;14.10;;;6.40;;
36715;SDS011;22699;51.034;3.730;2024-03-23T02:31:17;19.50;;;6.82;;
36715;SDS011;22699;51.034;3.730;2024-03-23T02:33:44;22.67;;;6.43;;
36715;SDS011;22699;51.034;3.730;2024-03-23T02:38:59;15.40;;;5.90;;
36715;SDS011;22699;51.034;3.730;2024-03-23T02:41:31;15.43;;;5.65;;
36715;SDS011;22699;51.034;3.730;2024-03-23T02:49:39;17.73;;;5.47;;
36715;SDS011;22699;51.034;3.730;2024-03-23T02:52:06;12.30;;;4.90;;
36715;SDS011;22699;51.034;3.730;2024-03-23T02:54:33;14.25;;;5.60;;
36715;SDS011;22699;51.034;3.730;2024-03-23T02:56:59;12.70;;;4.25;;
36715;SDS011;22699;51.034;3.730;2024-03-23T02:59:25;16.77;;;4.88;;
36715;SDS011;22699;51.034;3.730;2024-03-23T03:01:50;15.48;;;5.13;;
36715;SDS011;22699;51.034;3.730;2024-03-23T03:04:17;17.75;;;6.25;;
36715;SDS011;22699;51.034;3.730;2024-03-23T03:06:46;12.43;;;4.75;;
36715;SDS011;22699;51.034;3.730;2024-03-23T03:09:14;15.98;;;5.20;;
36715;SDS011;22699;51.034;3.730;2024-03-23T03:11:43;12.77;;;5.07;;
36715;SDS011;22699;51.034;3.730;2024-03-23T03:14:11;17.08;;;5.13;;
36715;SDS011;22699;51.034;3.730;2024-03-23T03:16:37;15.43;;;5.35;;
36715;SDS011;22699;51.034;3.730;2024-03-23T03:19:03;15.32;;;5.03;;
36715;SDS011;22699;51.034;3.730;2024-03-23T03:21:29;14.55;;;4.65;;
36715;SDS011;22699;51.034;3.730;2024-03-23T03:23:55;11.93;;;4.53;;
36715;SDS011;22699;51.034;3.730;2024-03-23T03:26:22;17.58;;;5.32;;
36715;SDS011;22699;51.034;3.730;2024-03-23T03:28:49;14.45;;;5.00;;
36715;SDS011;22699;51.034;3.730;2024-03-23T03:31:21;10.55;;;4.30;;
36715;SDS011;22699;51.034;3.730;2024-03-23T03:33:50;13.52;;;4.38;;
36715;SDS011;22699;51.034;3.730;2024-03-23T03:36:16;12.07;;;4.32;;
36715;SDS011;22699;51.034;3.730;2024-03-23T03:38:45;15.10;;;4.90;;
36715;SDS011;22699;51.034;3.730;2024-03-23T03:41:13;8.25;;;4.30;;
36715;SDS011;22699;51.034;3.730;2024-03-23T03:43:42;12.10;;;4.65;;
36715;SDS011;22699;51.034;3.730;2024-03-23T03:46:09;14.13;;;4.68;;
36715;SDS011;22699;51.034;3.730;2024-03-23T03:48:37;15.30;;;5.05;;
36715;SDS011;22699;51.034;3.730;2024-03-23T03:51:04;11.98;;;4.38;;
36715;SDS011;22699;51.034;3.730;2024-03-23T03:53:33;11.18;;;3.95;;
36715;SDS011;22699;51.034;3.730;2024-03-23T03:56:18;12.20;;;4.30;;
36715;SDS011;22699;51.034;3.730;2024-03-23T03:58:56;14.35;;;3.97;;
36715;SDS011;22699;51.034;3.730;2024-03-23T04:01:36;12.90;;;4.07;;
36715;SDS011;22699;51.034;3.730;2024-03-23T04:04:03;10.52;;;4.00;;
36715;SDS011;22699;51.034;3.730;2024-03-23T04:06:29;10.63;;;3.60;;
36715;SDS011;22699;51.034;3.730;2024-03-23T04:08:55;13.85;;;4.10;;
36715;SDS011;22699;51.034;3.730;2024-03-23T04:11:21;17.92;;;4.50;;
36715;SDS011;22699;51.034;3.730;2024-03-23T04:13:47;12.52;;;4.50;;
36715;SDS011;22699;51.034;3.730;2024-03-23T04:16:16;7.85;;;3.03;;
36715;SDS011;22699;51.034;3.730;2024-03-23T04:18:58;13.35;;;3.67;;
36715;SDS011;22699;51.034;3.730;2024-03-23T04:21:24;11.98;;;3.78;;
36715;SDS011;22699;51.034;3.730;2024-03-23T04:23:50;8.82;;;3.40;;
36715;SDS011;22699;51.034;3.730;2024-03-23T04:26:16;12.30;;;3.78;;
36715;SDS011;22699;51.034;3.730;2024-03-23T04:28:42;11.90;;;3.92;;
36715;SDS011;22699;51.034;3.730;2024-03-23T04:31:12;10.60;;;3.65;;
36715;SDS011;22699;51.034;3.730;2024-03-23T04:33:38;13.48;;;3.70;;
36715;SDS011;22699;51.034;3.730;2024-03-23T04:36:06;9.93;;;2.83;;
36715;SDS011;22699;51.034;3.730;2024-03-23T04:38:32;9.00;;;3.53;;
36715;SDS011;22699;51.034;3.730;2024-03-23T04:40:59;7.22;;;3.33;;
36715;SDS011;22699;51.034;3.730;2024-03-23T04:43:25;10.57;;;4.22;;
36715;SDS011;22699;51.034;3.730;2024-03-23T04:45:53;8.60;;;2.65;;
36715;SDS011;22699;51.034;3.730;2024-03-23T04:48:20;11.95;;;2.97;;
36715;SDS011;22699;51.034;3.730;2024-03-23T04:50:58;8.88;;;3.13;;
36715;SDS011;22699;51.034;3.730;2024-03-23T04:53:24;13.88;;;3.25;;
36715;SDS011;22699;51.034;3.730;2024-03-23T04:55:55;8.50;;;3.00;;
36715;SDS011;22699;51.034;3.730;2024-03-23T04:58:22;9.57;;;3.00;;
36715;SDS011;22699;51.034;3.730;2024-03-23T05:00:58;13.45;;;3.20;;
36715;SDS011;22699;51.034;3.730;2024-03-23T05:03:52;12.95;;;3.28;;
36715;SDS011;22699;51.034;3.730;2024-03-23T05:06:18;12.52;;;2.45;;
36715;SDS011;22699;51.034;3.730;2024-03-23T05:08:54;14.65;;;2.92;;
36715;SDS011;22699;51.034;3.730;2024-03-23T05:11:22;11.32;;;2.92;;
36715;SDS011;22699;51.034;3.730;2024-03-23T05:13:51;10.50;;;2.90;;
36715;SDS011;22699;51.034;3.730;2024-03-23T05:19:05;13.43;;;2.85;;
36715;SDS011;22699;51.034;3.730;2024-03-23T05:21:33;14.63;;;3.20;;
36715;SDS011;22699;51.034;3.730;2024-03-23T05:24:01;9.05;;;3.40;;
36715;SDS011;22699;51.034;3.730;2024-03-23T05:26:28;12.27;;;2.47;;
36715;SDS011;22699;51.034;3.730;2024-03-23T05:31:51;10.88;;;2.08;;
36715;SDS011;22699;51.034;3.730;2024-03-23T05:36:50;11.65;;;2.20;;
36715;SDS011;22699;51.034;3.730;2024-03-23T05:42:08;12.48;;;2.22;;
36715;SDS011;22699;51.034;3.730;2024-03-23T05:44:37;14.38;;;2.88;;
36715;SDS011;22699;51.034;3.730;2024-03-23T05:47:03;9.30;;;2.03;;
36715;SDS011;22699;51.034;3.730;2024-03-23T05:49:32;12.32;;;2.60;;
36715;SDS011;22699;51.034;3.730;2024-03-23T05:51:57;11.77;;;2.45;;
36715;SDS011;22699;51.034;3.730;2024-03-23T05:54:23;10.27;;;3.28;;
36715;SDS011;22699;51.034;3.730;2024-03-23T05:56:49;19.63;;;2.78;;
36715;SDS011;22699;51.034;3.730;2024-03-23T05:59:15;8.52;;;2.05;;
36715;SDS011;22699;51.034;3.730;2024-03-23T06:01:42;14.80;;;3.05;;
36715;SDS011;22699;51.034;3.730;2024-03-23T06:04:08;14.48;;;2.22;;
36715;SDS011;22699;51.034;3.730;2024-03-23T06:06:33;11.70;;;2.30;;
36715;SDS011;22699;51.034;3.730;2024-03-23T06:08:59;13.60;;;2.95;;
36715;SDS011;22699;51.034;3.730;2024-03-23T06:11:25;14.05;;;2.85;;
36715;SDS011;22699;51.034;3.730;2024-03-23T06:13:51;9.60;;;2.45;;
36715;SDS011;22699;51.034;3.730;2024-03-23T06:16:17;13.77;;;2.08;;
36715;SDS011;22699;51.034;3.730;2024-03-23T06:21:20;13.75;;;2.67;;
36715;SDS011;22699;51.034;3.730;2024-03-23T06:23:52;8.48;;;2.42;;
36715;SDS011;22699;51.034;3.730;2024-03-23T06:29:36;14.75;;;2.83;;
36715;SDS011;22699;51.034;3.730;2024-03-23T06:32:28;14.80;;;2.90;;
36715;SDS011;22699;51.034;3.730;2024-03-23T06:35:00;7.53;;;2.83;;
36715;SDS011;22699;51.034;3.730;2024-03-23T06:37:52;10.82;;;2.50;;
36715;SDS011;22699;51.034;3.730;2024-03-23T06:40:21;10.85;;;2.35;;
36715;SDS011;22699;51.034;3.730;2024-03-23T06:43:09;13.85;;;3.13;;
36715;SDS011;22699;51.034;3.730;2024-03-23T06:46:01;16.10;;;2.60;;
36715;SDS011;22699;51.034;3.730;2024-03-23T06:51:03;8.82;;;2.75;;
36715;SDS011;22699;51.034;3.730;2024-03-23T06:53:29;12.77;;;2.53;;
36715;SDS011;22699;51.034;3.730;2024-03-23T06:55:56;10.02;;;3.08;;
36715;SDS011;22699;51.034;3.730;2024-03-23T06:58:23;10.75;;;2.55;;
36715;SDS011;22699;51.034;3.730;2024-03-23T07:00:51;11.20;;;2.70;;
36715;SDS011;22699;51.034;3.730;2024-03-23T07:06:04;16.90;;;2.92;;
36715;SDS011;22699;51.034;3.730;2024-03-23T07:08:36;11.68;;;2.65;;
36715;SDS011;22699;51.034;3.730;2024-03-23T07:11:09;10.70;;;3.03;;
36715;SDS011;22699;51.034;3.730;2024-03-23T07:13:38;11.95;;;2.50;;
36715;SDS011;22699;51.034;3.730;2024-03-23T07:16:04;12.02;;;3.78;;
36715;SDS011;22699;51.034;3.730;2024-03-23T07:18:34;15.27;;;4.38;;
36715;SDS011;22699;51.034;3.730;2024-03-23T07:23:33;13.68;;;5.00;;
36715;SDS011;22699;51.034;3.730;2024-03-23T07:26:04;17.88;;;6.80;;
36715;SDS011;22699;51.034;3.730;2024-03-23T07:28:33;20.80;;;8.40;;
36715;SDS011;22699;51.034;3.730;2024-03-23T07:33:35;26.10;;;8.82;;
36715;SDS011;22699;51.034;3.730;2024-03-23T07:36:11;15.77;;;8.63;;
36715;SDS011;22699;51.034;3.730;2024-03-23T07:38:37;17.80;;;7.50;;
36715;SDS011;22699;51.034;3.730;2024-03-23T07:41:11;16.38;;;7.32;;
36715;SDS011;22699;51.034;3.730;2024-03-23T07:43:41;12.55;;;5.85;;
36715;SDS011;22699;51.034;3.730;2024-03-23T07:46:07;12.65;;;5.53;;
36715;SDS011;22699;51.034;3.730;2024-03-23T07:48:34;12.48;;;4.65;;
36715;SDS011;22699;51.034;3.730;2024-03-23T07:51:19;12.30;;;4.75;;
36715;SDS011;22699;51.034;3.730;2024-03-23T07:54:00;14.52;;;4.75;;
36715;SDS011;22699;51.034;3.730;2024-03-23T07:56:30;13.48;;;3.80;;
36715;SDS011;22699;51.034;3.730;2024-03-23T07:59:00;9.20;;;2.88;;
36715;SDS011;22699;51.034;3.730;2024-03-23T08:01:28;9.77;;;2.95;;
36715;SDS011;22699;51.034;3.730;2024-03-23T08:03:56;6.13;;;2.25;;
36715;SDS011;22699;51.034;3.730;2024-03-23T08:06:21;11.43;;;2.30;;
36715;SDS011;22699;51.034;3.730;2024-03-23T08:08:56;6.50;;;1.80;;
36715;SDS011;22699;51.034;3.730;2024-03-23T08:11:29;5.80;;;1.88;;
36715;SDS011;22699;51.034;3.730;2024-03-23T08:13:58;7.60;;;1.85;;
36715;SDS011;22699;51.034;3.730;2024-03-23T08:16:24;9.50;;;2.33;;
36715;SDS011;22699;51.034;3.730;2024-03-23T08:18:53;11.63;;;2.00;;
36715;SDS011;22699;51.034;3.730;2024-03-23T08:21:21;6.95;;;1.65;;
36715;SDS011;22699;51.034;3.730;2024-03-23T08:23:47;8.68;;;2.05;;
36715;SDS011;22699;51.034;3.730;2024-03-23T08:26:15;8.27;;;1.88;;
36715;SDS011;22699;51.034;3.730;2024-03-23T08:28:43;8.63;;;2.65;;
36715;SDS011;22699;51.034;3.730;2024-03-23T08:31:10;5.70;;;1.52;;
36715;SDS011;22699;51.034;3.730;2024-03-23T08:33:36;13.18;;;2.03;;
36715;SDS011;22699;51.034;3.730;2024-03-23T08:36:06;7.03;;;1.30;;
36715;SDS011;22699;51.034;3.730;2024-03-23T08:38:33;6.20;;;1.83;;
36715;SDS011;22699;51.034;3.730;2024-03-23T08:41:00;10.80;;;2.03;;
36715;SDS011;22699;51.034;3.730;2024-03-23T08:43:31;8.30;;;1.83;;
36715;SDS011;22699;51.034;3.730;2024-03-23T08:46:05;10.30;;;2.67;;
36715;SDS011;22699;51.034;3.730;2024-03-23T08:48:44;9.48;;;2.17;;
36715;SDS011;22699;51.034;3.730;2024-03-23T08:51:14;7.00;;;1.42;;
36715;SDS011;22699;51.034;3.730;2024-03-23T08:53:43;8.70;;;1.50;;
36715;SDS011;22699;51.034;3.730;2024-03-23T08:56:10;9.63;;;2.25;;
36715;SDS011;22699;51.034;3.730;2024-03-23T08:58:37;7.22;;;2.00;;
36715;SDS011;22699;51.034;3.730;2024-03-23T09:01:08;11.00;;;2.45;;
36715;SDS011;22699;51.034;3.730;2024-03-23T09:03:35;7.53;;;2.20;;
36715;SDS011;22699;51.034;3.730;2024-03-23T09:06:14;6.63;;;2.10;;
36715;SDS011;22699;51.034;3.730;2024-03-23T09:08:41;6.20;;;2.53;;
36715;SDS011;22699;51.034;3.730;2024-03-23T09:11:07;10.32;;;2.30;;
36715;SDS011;22699;51.034;3.730;2024-03-23T09:13:35;8.45;;;2.00;;
36715;SDS011;22699;51.034;3.730;2024-03-23T09:16:02;11.82;;;1.80;;
36715;SDS011;22699;51.034;3.730;2024-03-23T09:18:32;14.50;;;2.47;;
36715;SDS011;22699;51.034;3.730;2024-03-23T09:21:00;6.10;;;1.50;;
36715;SDS011;22699;51.034;3.730;2024-03-23T09:23:35;6.82;;;1.40;;
36715;SDS011;22699;51.034;3.730;2024-03-23T09:26:05;6.05;;;1.63;;
36715;SDS011;22699;51.034;3.730;2024-03-23T09:28:36;10.23;;;1.83;;
36715;SDS011;22699;51.034;3.730;2024-03-23T09:31:05;8.65;;;2.00;;
36715;SDS011;22699;51.034;3.730;2024-03-23T09:33:42;8.38;;;1.75;;
36715;SDS011;22699;51.034;3.730;2024-03-23T09:36:08;12.85;;;2.90;;
36715;SDS011;22699;51.034;3.730;2024-03-23T09:38:40;9.05;;;3.00;;
36715;SDS011;22699;51.034;3.730;2024-03-23T09:41:07;11.88;;;3.72;;
36715;SDS011;22699;51.034;3.730;2024-03-23T09:43:35;12.18;;;3.97;;
36715;SDS011;22699;51.034;3.730;2024-03-23T09:46:15;7.63;;;2.73;;
36715;SDS011;22699;51.034;3.730;2024-03-23T09:51:12;13.50;;;3.63;;
36715;SDS011;22699;51.034;3.730;2024-03-23T09:53:45;9.82;;;2.85;;
36715;SDS011;22699;51.034;3.730;2024-03-23T09:56:15;10.75;;;2.33;;
36715;SDS011;22699;51.034;3.730;2024-03-23T09:58:42;12.75;;;2.60;;
36715;SDS011;22699;51.034;3.730;2024-03-23T10:01:08;9.90;;;2.00;;
36715;SDS011;22699;51.034;3.730;2024-03-23T10:03:44;9.80;;;2.40;;
36715;SDS011;22699;51.034;3.730;2024-03-23T10:06:12;5.35;;;2.17;;
36715;SDS011;22699;51.034;3.730;2024-03-23T10:08:49;8.82;;;3.10;;
36715;SDS011;22699;51.034;3.730;2024-03-23T10:11:16;11.35;;;3.67;;
36715;SDS011;22699;51.034;3.730;2024-03-23T10:13:43;11.85;;;3.70;;
36715;SDS011;22699;51.034;3.730;2024-03-23T10:16:11;9.95;;;3.90;;
36715;SDS011;22699;51.034;3.730;2024-03-23T10:18:47;10.27;;;4.15;;
36715;SDS011;22699;51.034;3.730;2024-03-23T10:21:33;13.38;;;4.13;;
36715;SDS011;22699;51.034;3.730;2024-03-23T10:23:59;12.00;;;4.15;;
36715;SDS011;22699;51.034;3.730;2024-03-23T10:26:33;17.83;;;4.13;;
36715;SDS011;22699;51.034;3.730;2024-03-23T10:28:59;14.25;;;3.80;;
36715;SDS011;22699;51.034;3.730;2024-03-23T10:31:29;8.23;;;3.35;;
36715;SDS011;22699;51.034;3.730;2024-03-23T10:33:56;7.82;;;4.00;;
36715;SDS011;22699;51.034;3.730;2024-03-23T10:36:22;7.72;;;2.97;;
36715;SDS011;22699;51.034;3.730;2024-03-23T10:41:22;7.07;;;3.15;;
36715;SDS011;22699;51.034;3.730;2024-03-23T10:43:55;8.43;;;2.30;;
36715;SDS011;22699;51.034;3.730;2024-03-23T10:46:24;8.63;;;2.85;;
36715;SDS011;22699;51.034;3.730;2024-03-23T10:48:53;6.30;;;2.58;;
36715;SDS011;22699;51.034;3.730;2024-03-23T10:51:24;7.20;;;2.53;;
36715;SDS011;22699;51.034;3.730;2024-03-23T10:53:51;7.30;;;2.47;;
36715;SDS011;22699;51.034;3.730;2024-03-23T10:56:19;7.63;;;2.50;;
36715;SDS011;22699;51.034;3.730;2024-03-23T10:58:46;8.30;;;2.10;;
36715;SDS011;22699;51.034;3.730;2024-03-23T11:01:14;6.65;;;2.65;;
36715;SDS011;22699;51.034;3.730;2024-03-23T11:03:44;7.15;;;2.45;;
36715;SDS011;22699;51.034;3.730;2024-03-23T11:06:33;3.03;;;1.50;;
36715;SDS011;22699;51.034;3.730;2024-03-23T11:14:51;10.18;;;2.33;;
36715;SDS011;22699;51.034;3.730;2024-03-23T11:17:28;8.43;;;2.45;;
36715;SDS011;22699;51.034;3.730;2024-03-23T11:19:58;7.95;;;2.30;;
36715;SDS011;22699;51.034;3.730;2024-03-23T11:25:25;8.15;;;2.00;;
36715;SDS011;22699;51.034;3.730;2024-03-23T11:27:52;11.20;;;1.80;;
36715;SDS011;22699;51.034;3.730;2024-03-23T11:30:42;10.57;;;1.83;;
36715;SDS011;22699;51.034;3.730;2024-03-23T11:35:50;8.63;;;2.80;;
36715;SDS011;22699;51.034;3.730;2024-03-23T11:38:22;8.02;;;1.98;;
36715;SDS011;22699;51.034;3.730;2024-03-23T11:40:49;9.10;;;3.17;;
36715;SDS011;22699;51.034;3.730;2024-03-23T11:43:24;9.20;;;2.30;;
36715;SDS011;22699;51.034;3.730;2024-03-23T11:45:51;8.65;;;2.38;;
36715;SDS011;22699;51.034;3.730;2024-03-23T11:48:18;7.57;;;1.95;;
36715;SDS011;22699;51.034;3.730;2024-03-23T11:50:46;7.72;;;2.13;;
36715;SDS011;22699;51.034;3.730;2024-03-23T11:53:15;9.02;;;2.47;;
36715;SDS011;22699;51.034;3.730;2024-03-23T11:55:42;6.47;;;2.20;;
36715;SDS011;22699;51.034;3.730;2024-03-23T11:58:12;10.10;;;2.47;;
36715;SDS011;22699;51.034;3.730;2024-03-23T12:00:39;6.85;;;1.90;;
36715;SDS011;22699;51.034;3.730;2024-03-23T12:03:09;10.15;;;1.85;;
36715;SDS011;22699;51.034;3.730;2024-03-23T12:05:36;6.22;;;2.05;;
36715;SDS011;22699;51.034;3.730;2024-03-23T12:08:18;7.22;;;2.10;;
36715;SDS011;22699;51.034;3.730;2024-03-23T12:11:08;4.82;;;1.63;;
36715;SDS011;22699;51.034;3.730;2024-03-23T12:13:48;7.13;;;1.95;;
36715;SDS011;22699;51.034;3.730;2024-03-23T12:16:19;8.40;;;2.17;;
36715;SDS011;22699;51.034;3.730;2024-03-23T12:18:46;5.10;;;1.60;;
36715;SDS011;22699;51.034;3.730;2024-03-23T12:21:15;9.18;;;2.22;;
36715;SDS011;22699;51.034;3.730;2024-03-23T12:23:43;7.88;;;2.10;;
36715;SDS011;22699;51.034;3.730;2024-03-23T12:26:11;6.43;;;1.50;;
36715;SDS011;22699;51.034;3.730;2024-03-23T12:28:47;5.20;;;1.30;;
36715;SDS011;22699;51.034;3.730;2024-03-23T12:31:14;9.55;;;1.50;;
36715;SDS011;22699;51.034;3.730;2024-03-23T12:33:40;5.70;;;1.65;;
36715;SDS011;22699;51.034;3.730;2024-03-23T12:36:06;3.83;;;1.45;;
36715;SDS011;22699;51.034;3.730;2024-03-23T12:38:32;4.53;;;1.42;;
36715;SDS011;22699;51.034;3.730;2024-03-23T12:40:57;7.05;;;1.48;;
36715;SDS011;22699;51.034;3.730;2024-03-23T12:43:23;4.65;;;1.80;;
36715;SDS011;22699;51.034;3.730;2024-03-23T12:45:49;6.03;;;1.40;;
36715;SDS011;22699;51.034;3.730;2024-03-23T12:48:16;5.88;;;2.25;;
36715;SDS011;22699;51.034;3.730;2024-03-23T12:50:43;10.57;;;2.38;;
36715;SDS011;22699;51.034;3.730;2024-03-23T12:53:09;5.32;;;2.47;;
36715;SDS011;22699;51.034;3.730;2024-03-23T12:55:36;5.05;;;1.40;;
36715;SDS011;22699;51.034;3.730;2024-03-23T12:58:15;6.78;;;2.42;;
36715;SDS011;22699;51.034;3.730;2024-03-23T13:00:40;10.07;;;2.40;;
36715;SDS011;22699;51.034;3.730;2024-03-23T13:03:07;6.47;;;2.13;;
36715;SDS011;22699;51.034;3.730;2024-03-23T13:05:42;7.00;;;2.35;;
36715;SDS011;22699;51.034;3.730;2024-03-23T13:10:40;7.13;;;1.67;;
36715;SDS011;22699;51.034;3.730;2024-03-23T13:13:07;6.82;;;1.80;;
36715;SDS011;22699;51.034;3.730;2024-03-23T13:15:39;5.57;;;1.75;;
36715;SDS011;22699;51.034;3.730;2024-03-23T13:18:05;8.55;;;1.92;;
36715;SDS011;22699;51.034;3.730;2024-03-23T13:20:35;7.28;;;2.35;;
36715;SDS011;22699;51.034;3.730;2024-03-23T13:23:01;9.90;;;4.03;;
36715;SDS011;22699;51.034;3.730;2024-03-23T13:25:29;10.18;;;2.10;;
36715;SDS011;22699;51.034;3.730;2024-03-23T13:27:56;5.60;;;2.10;;
36715;SDS011;22699;51.034;3.730;2024-03-23T13:30:23;4.90;;;1.35;;
36715;SDS011;22699;51.034;3.730;2024-03-23T13:32:58;7.10;;;1.53;;
36715;SDS011;22699;51.034;3.730;2024-03-23T13:35:28;3.95;;;1.27;;
36715;SDS011;22699;51.034;3.730;2024-03-23T13:37:54;2.47;;;1.40;;
36715;SDS011;22699;51.034;3.730;2024-03-23T13:42:50;4.40;;;1.55;;
36715;SDS011;22699;51.034;3.730;2024-03-23T13:45:18;5.03;;;1.50;;
36715;SDS011;22699;51.034;3.730;2024-03-23T13:47:45;4.97;;;1.55;;
36715;SDS011;22699;51.034;3.730;2024-03-23T13:52:43;9.35;;;2.22;;
36715;SDS011;22699;51.034;3.730;2024-03-23T13:55:09;5.60;;;1.58;;
36715;SDS011;22699;51.034;3.730;2024-03-23T13:57:37;4.18;;;1.50;;
36715;SDS011;22699;51.034;3.730;2024-03-23T14:00:02;5.47;;;1.35;;
36715;SDS011;22699;51.034;3.730;2024-03-23T14:02:37;4.78;;;1.75;;
36715;SDS011;22699;51.034;3.730;2024-03-23T14:05:04;3.90;;;0.98;;
36715;SDS011;22699;51.034;3.730;2024-03-23T14:07:32;3.97;;;1.27;;
36715;SDS011;22699;51.034;3.730;2024-03-23T14:10:05;7.43;;;1.52;;
36715;SDS011;22699;51.034;3.730;2024-03-23T14:12:31;5.72;;;1.73;;
36715;SDS011;22699;51.034;3.730;2024-03-23T14:14:58;4.00;;;1.40;;
36715;SDS011;22699;51.034;3.730;2024-03-23T14:17:31;3.22;;;1.17;;
36715;SDS011;22699;51.034;3.730;2024-03-23T14:22:26;5.80;;;1.42;;
36715;SDS011;22699;51.034;3.730;2024-03-23T14:24:53;5.00;;;1.50;;
36715;SDS011;22699;51.034;3.730;2024-03-23T14:27:18;6.57;;;1.50;;
36715;SDS011;22699;51.034;3.730;2024-03-23T14:29:48;8.48;;;2.05;;
36715;SDS011;22699;51.034;3.730;2024-03-23T14:32:14;4.85;;;1.20;;
36715;SDS011;22699;51.034;3.730;2024-03-23T14:34:41;5.85;;;0.90;;
36715;SDS011;22699;51.034;3.730;2024-03-23T14:37:08;4.07;;;1.35;;
36715;SDS011;22699;51.034;3.730;2024-03-23T14:39:34;5.20;;;1.42;;
36715;SDS011;22699;51.034;3.730;2024-03-23T14:42:00;4.85;;;1.13;;
36715;SDS011;22699;51.034;3.730;2024-03-23T14:44:27;6.55;;;1.67;;
36715;SDS011;22699;51.034;3.730;2024-03-23T14:46:53;5.95;;;1.33;;
36715;SDS011;22699;51.034;3.730;2024-03-23T14:49:20;4.68;;;1.65;;
36715;SDS011;22699;51.034;3.730;2024-03-23T14:51:46;3.58;;;1.20;;
36715;SDS011;22699;51.034;3.730;2024-03-23T14:54:13;6.30;;;1.20;;
36715;SDS011;22699;51.034;3.730;2024-03-23T14:56:51;5.82;;;1.27;;
36715;SDS011;22699;51.034;3.730;2024-03-23T14:59:18;4.95;;;1.05;;
36715;SDS011;22699;51.034;3.730;2024-03-23T15:01:48;5.68;;;1.30;;
36715;SDS011;22699;51.034;3.730;2024-03-23T15:04:16;7.00;;;1.48;;
36715;SDS011;22699;51.034;3.730;2024-03-23T15:06:47;7.00;;;1.40;;
36715;SDS011;22699;51.034;3.730;2024-03-23T15:09:15;8.27;;;1.33;;
36715;SDS011;22699;51.034;3.730;2024-03-23T15:11:43;7.55;;;1.73;;
36715;SDS011;22699;51.034;3.730;2024-03-23T15:14:09;4.93;;;1.50;;
36715;SDS011;22699;51.034;3.730;2024-03-23T15:16:37;7.25;;;1.10;;
36715;SDS011;22699;51.034;3.730;2024-03-23T15:19:03;3.67;;;0.90;;
36715;SDS011;22699;51.034;3.730;2024-03-23T15:21:32;4.13;;;1.02;;
36715;SDS011;22699;51.034;3.730;2024-03-23T15:23:57;3.58;;;1.20;;
36715;SDS011;22699;51.034;3.730;2024-03-23T15:26:25;3.58;;;1.20;;
36715;SDS011;22699;51.034;3.730;2024-03-23T15:28:52;3.83;;;1.08;;
36715;SDS011;22699;51.034;3.730;2024-03-23T15:31:44;4.78;;;1.75;;
36715;SDS011;22699;51.034;3.730;2024-03-23T15:34:11;8.27;;;1.75;;
36715;SDS011;22699;51.034;3.730;2024-03-23T15:36:37;5.47;;;1.60;;
36715;SDS011;22699;51.034;3.730;2024-03-23T15:39:10;6.15;;;1.30;;
36715;SDS011;22699;51.034;3.730;2024-03-23T15:41:41;4.72;;;1.20;;
36715;SDS011;22699;51.034;3.730;2024-03-23T15:44:08;6.30;;;1.73;;
36715;SDS011;22699;51.034;3.730;2024-03-23T15:46:46;5.55;;;1.70;;
36715;SDS011;22699;51.034;3.730;2024-03-23T15:49:16;5.82;;;1.08;;
36715;SDS011;22699;51.034;3.730;2024-03-23T15:51:41;4.78;;;1.38;;
36715;SDS011;22699;51.034;3.730;2024-03-23T15:54:11;5.60;;;1.10;;
36715;SDS011;22699;51.034;3.730;2024-03-23T15:56:37;5.55;;;1.63;;
36715;SDS011;22699;51.034;3.730;2024-03-23T15:59:02;6.45;;;1.63;;
36715;SDS011;22699;51.034;3.730;2024-03-23T16:01:32;8.25;;;1.73;;
36715;SDS011;22699;51.034;3.730;2024-03-23T16:04:03;9.05;;;1.63;;
36715;SDS011;22699;51.034;3.730;2024-03-23T16:06:31;7.03;;;2.17;;
36715;SDS011;22699;51.034;3.730;2024-03-23T16:08:57;5.45;;;1.67;;
36715;SDS011;22699;51.034;3.730;2024-03-23T16:11:23;7.88;;;1.40;;
36715;SDS011;22699;51.034;3.730;2024-03-23T16:13:48;7.05;;;1.52;;
36715;SDS011;22699;51.034;3.730;2024-03-23T16:16:14;9.07;;;2.13;;
36715;SDS011;22699;51.034;3.730;2024-03-23T16:18:42;8.68;;;3.05;;
36715;SDS011;22699;51.034;3.730;2024-03-23T16:21:09;5.18;;;1.80;;
36715;SDS011;22699;51.034;3.730;2024-03-23T16:23:37;10.68;;;2.83;;
36715;SDS011;22699;51.034;3.730;2024-03-23T16:26:08;12.20;;;4.90;;
36715;SDS011;22699;51.034;3.730;2024-03-23T16:28:35;5.45;;;3.50;;
36715;SDS011;22699;51.034;3.730;2024-03-23T16:31:05;7.95;;;2.53;;
36715;SDS011;22699;51.034;3.730;2024-03-23T16:33:32;6.90;;;3.30;;
36715;SDS011;22699;51.034;3.730;2024-03-23T16:36:00;6.30;;;2.15;;
36715;SDS011;22699;51.034;3.730;2024-03-23T16:38:39;5.57;;;1.70;;
36715;SDS011;22699;51.034;3.730;2024-03-23T16:41:09;6.25;;;1.70;;
36715;SDS011;22699;51.034;3.730;2024-03-23T16:43:40;8.60;;;1.45;;
36715;SDS011;22699;51.034;3.730;2024-03-23T16:46:10;3.97;;;1.45;;
36715;SDS011;22699;51.034;3.730;2024-03-23T16:48:41;6.80;;;1.77;;
36715;SDS011;22699;51.034;3.730;2024-03-23T16:53:34;3.67;;;0.82;;
36715;SDS011;22699;51.034;3.730;2024-03-23T16:56:06;1.98;;;0.82;;
36715;SDS011;22699;51.034;3.730;2024-03-23T16:58:34;1.38;;;0.60;;
36715;SDS011;22699;51.034;3.730;2024-03-23T17:01:06;1.65;;;0.70;;
36715;SDS011;22699;51.034;3.730;2024-03-23T17:03:47;4.07;;;0.68;;
36715;SDS011;22699;51.034;3.730;2024-03-23T17:08:45;4.25;;;0.85;;
36715;SDS011;22699;51.034;3.730;2024-03-23T17:11:14;2.95;;;0.80;;
36715;SDS011;22699;51.034;3.730;2024-03-23T17:13:42;1.90;;;0.63;;